createdAt,value
2023-05-25T00:00:11.680Z,4.50
2023-05-25T00:02:46.652Z,4.07
2023-05-25T00:05:14.707Z,4.03
2023-05-25T00:07:42.191Z,4.43
2023-05-25T00:10:14.675Z,4.87
2023-05-25T00:12:44.763Z,4.50
2023-05-25T00:15:12.437Z,4.17
2023-05-25T00:17:55.095Z,4.70
2023-05-25T00:20:22.588Z,4.70
2023-05-25T00:22:50.367Z,5.07
2023-05-25T00:25:24.786Z,4.67
2023-05-25T00:27:52.245Z,4.77
2023-05-25T00:30:19.657Z,4.33
2023-05-25T00:32:47.896Z,5.47
2023-05-25T00:35:24.447Z,4.57
2023-05-25T00:37:59.385Z,5.17
2023-05-25T00:40:27.019Z,5.17
2023-05-25T00:42:56.463Z,5.10
2023-05-25T00:45:24.865Z,5.50
2023-05-25T00:48:00.919Z,4.93
2023-05-25T00:50:53.916Z,5.10
2023-05-25T00:53:27.882Z,5.10
2023-05-25T00:56:38.759Z,5.40
2023-05-25T01:00:21.356Z,5.43
2023-05-25T01:03:30.078Z,4.80
2023-05-25T01:06:22.046Z,5.57
2023-05-25T01:09:27.039Z,4.90
2023-05-25T01:14:54.435Z,5.00
2023-05-25T01:17:25.727Z,5.20
2023-05-25T01:20:09.789Z,5.63
2023-05-25T01:22:57.662Z,4.90
2023-05-25T01:25:43.296Z,4.50
2023-05-25T01:28:34.361Z,5.23
2023-05-25T01:31:03.243Z,4.90
2023-05-25T01:33:45.223Z,4.70
2023-05-25T01:36:21.485Z,4.63
2023-05-25T01:38:50.586Z,4.27
2023-05-25T01:41:32.072Z,4.63
2023-05-25T01:44:02.800Z,4.83
2023-05-25T01:46:49.735Z,5.60
2023-05-25T01:50:14.478Z,5.13
2023-05-25T01:53:22.154Z,5.07
2023-05-25T01:56:56.565Z,4.60
2023-05-25T01:59:08.032Z,5.60
2023-05-25T02:01:41.352Z,4.93
2023-05-25T02:04:21.276Z,5.23
2023-05-25T02:07:57.971Z,5.53
2023-05-25T02:10:31.729Z,4.50
2023-05-25T02:15:47.990Z,4.90
2023-05-25T02:18:49.777Z,4.87
2023-05-25T02:24:05.717Z,4.70
2023-05-25T02:26:40.288Z,4.77
2023-05-25T02:29:07.643Z,5.10
2023-05-25T02:31:35.059Z,5.47
2023-05-25T02:34:03.161Z,5.13
2023-05-25T02:36:31.836Z,5.03
2023-05-25T02:38:59.901Z,5.50
2023-05-25T02:41:27.936Z,5.23
2023-05-25T02:43:55.907Z,5.13
2023-05-25T02:46:24.072Z,5.40
2023-05-25T02:49:04.398Z,5.60
2023-05-25T02:51:32.618Z,5.30
2023-05-25T02:54:08.785Z,5.50
2023-05-25T02:56:36.204Z,5.00
2023-05-25T02:59:03.746Z,5.57
2023-05-25T03:01:38.495Z,5.40
2023-05-25T03:04:06.184Z,5.00
2023-05-25T03:06:33.787Z,5.53
2023-05-25T03:09:01.449Z,4.87
2023-05-25T03:11:41.888Z,4.97
2023-05-25T03:14:11.663Z,4.90
2023-05-25T03:16:47.336Z,5.50
2023-05-25T03:19:16.122Z,5.07
2023-05-25T03:21:45.080Z,5.27
2023-05-25T03:24:14.656Z,4.90
2023-05-25T03:26:42.391Z,5.80
2023-05-25T03:29:09.717Z,5.07
2023-05-25T03:31:37.150Z,4.90
2023-05-25T03:34:06.311Z,4.90
2023-05-25T03:36:40.168Z,4.83
2023-05-25T03:39:07.406Z,5.07
2023-05-25T03:41:34.864Z,5.07
2023-05-25T03:44:02.102Z,5.07
2023-05-25T03:46:29.346Z,5.27
2023-05-25T03:48:57.403Z,5.20
2023-05-25T03:51:25.185Z,5.07
2023-05-25T03:53:55.582Z,5.83
2023-05-25T03:56:26.801Z,5.17
2023-05-25T03:58:55.423Z,5.37
2023-05-25T04:01:26.681Z,5.43
2023-05-25T04:04:06.789Z,6.00
2023-05-25T04:06:39.754Z,5.60
2023-05-25T04:09:18.698Z,5.60
2023-05-25T04:11:46.612Z,5.43
2023-05-25T04:14:21.922Z,5.77
2023-05-25T04:16:49.722Z,6.23
2023-05-25T04:19:17.332Z,6.20
2023-05-25T04:21:45.521Z,5.33
2023-05-25T04:24:13.489Z,5.83
2023-05-25T04:26:52.397Z,5.73
2023-05-25T04:29:19.715Z,5.63
2023-05-25T04:31:47.651Z,5.67
2023-05-25T04:34:48.508Z,8.33
2023-05-25T04:37:19.999Z,6.23
2023-05-25T04:39:47.121Z,5.70
2023-05-25T04:42:14.523Z,5.30
2023-05-25T04:44:41.853Z,5.13
2023-05-25T04:47:16.656Z,5.97
2023-05-25T04:49:44.108Z,5.73
2023-05-25T04:52:11.741Z,5.50
2023-05-25T04:54:39.321Z,5.70
2023-05-25T04:57:17.553Z,6.33
2023-05-25T04:59:47.288Z,6.07
2023-05-25T05:02:14.635Z,6.47
2023-05-25T05:04:42.401Z,5.87
2023-05-25T05:07:10.484Z,5.60
2023-05-25T05:09:38.427Z,5.57
2023-05-25T05:12:07.716Z,6.17
2023-05-25T05:14:36.421Z,5.77
2023-05-25T05:17:12.803Z,5.97
2023-05-25T05:19:40.182Z,6.13
2023-05-25T05:22:09.757Z,5.93
2023-05-25T05:24:36.963Z,6.70
2023-05-25T05:27:04.948Z,6.40
2023-05-25T05:29:34.267Z,6.17
2023-05-25T05:32:10.435Z,6.57
2023-05-25T05:34:38.198Z,5.70
2023-05-25T05:37:05.935Z,6.23
2023-05-25T05:39:33.374Z,6.07
2023-05-25T05:42:01.419Z,6.20
2023-05-25T05:44:29.467Z,5.27
2023-05-25T05:47:06.679Z,5.67
2023-05-25T05:49:38.976Z,5.60
2023-05-25T05:52:38.835Z,5.27
2023-05-25T05:55:14.240Z,5.27
2023-05-25T05:57:49.093Z,5.13
2023-05-25T06:00:30.910Z,4.20
2023-05-25T06:03:00.900Z,4.57
2023-05-25T06:05:28.876Z,4.57
2023-05-25T06:08:12.580Z,4.60
2023-05-25T06:10:40.674Z,4.70
2023-05-25T06:13:11.261Z,4.40
2023-05-25T06:15:41.915Z,4.73
2023-05-25T06:18:11.856Z,5.17
2023-05-25T06:20:39.324Z,4.00
2023-05-25T06:23:12.524Z,4.40
2023-05-25T06:25:43.958Z,3.80
2023-05-25T06:28:11.596Z,3.60
2023-05-25T06:30:38.783Z,3.83
2023-05-25T06:33:06.153Z,3.80
2023-05-25T06:35:33.751Z,3.90
2023-05-25T06:38:01.852Z,3.67
2023-05-25T06:40:29.320Z,3.77
2023-05-25T06:42:59.900Z,4.10
2023-05-25T06:45:27.328Z,3.70
2023-05-25T06:47:55.109Z,3.63
2023-05-25T06:50:38.721Z,3.43
2023-05-25T06:53:17.696Z,3.77
2023-05-25T06:55:58.235Z,4.10
2023-05-25T06:58:27.726Z,3.83
2023-05-25T07:00:55.269Z,4.17
2023-05-25T07:03:22.689Z,4.40
2023-05-25T07:05:50.625Z,4.50
2023-05-25T07:08:38.940Z,4.00
2023-05-25T07:11:14.648Z,3.63
2023-05-25T07:13:41.914Z,2.87
2023-05-25T07:16:09.260Z,3.50
2023-05-25T07:18:41.189Z,3.40
2023-05-25T07:21:10.172Z,4.00
2023-05-25T07:23:41.512Z,2.77
2023-05-25T07:26:09.097Z,3.27
2023-05-25T07:28:39.420Z,3.17
2023-05-25T07:31:07.360Z,3.00
2023-05-25T07:33:38.062Z,3.33
2023-05-25T07:36:07.352Z,3.50
2023-05-25T07:38:47.926Z,2.90
2023-05-25T07:41:20.692Z,3.57
2023-05-25T07:43:50.634Z,2.77
2023-05-25T07:46:26.907Z,3.10
2023-05-25T07:49:06.414Z,3.20
2023-05-25T07:51:34.120Z,3.05
2023-05-25T07:54:07.156Z,3.10
2023-05-25T07:56:34.421Z,2.90
2023-05-25T07:59:09.312Z,2.90
2023-05-25T08:01:45.361Z,3.05
2023-05-25T08:04:19.159Z,2.50
2023-05-25T08:06:50.374Z,2.72
2023-05-25T08:09:23.653Z,2.40
2023-05-25T08:12:12.758Z,2.93
2023-05-25T08:14:45.047Z,2.60
2023-05-25T08:17:12.506Z,3.60
2023-05-25T08:19:40.043Z,2.57
2023-05-25T08:22:07.724Z,1.70
2023-05-25T08:24:35.167Z,2.07
2023-05-25T08:27:03.622Z,3.27
2023-05-25T08:29:31.386Z,3.43
2023-05-25T08:31:58.849Z,2.23
2023-05-25T08:34:26.854Z,2.50
2023-05-25T08:37:05.323Z,2.33
2023-05-25T08:39:39.242Z,2.15
2023-05-25T08:42:12.643Z,2.30
2023-05-25T08:44:43.177Z,1.92
2023-05-25T08:51:43.669Z,1.63
2023-05-25T08:54:15.387Z,2.35
2023-05-25T08:56:53.301Z,2.13
2023-05-25T08:59:57.558Z,2.80
2023-05-25T09:02:53.450Z,1.97
2023-05-25T09:05:29.026Z,1.77
2023-05-25T09:07:57.713Z,2.25
2023-05-25T09:10:34.798Z,2.28
2023-05-25T09:13:16.621Z,2.20
2023-05-25T09:15:49.586Z,1.90
2023-05-25T09:18:17.101Z,2.47
2023-05-25T09:20:47.645Z,1.98
2023-05-25T09:23:21.819Z,2.30
2023-05-25T09:25:50.966Z,1.85
2023-05-25T09:28:27.324Z,2.33
2023-05-25T09:31:00.983Z,3.08
2023-05-25T09:33:31.858Z,2.30
2023-05-25T09:35:59.440Z,2.92
2023-05-25T09:38:27.224Z,2.55
2023-05-25T09:40:54.743Z,2.70
2023-05-25T09:43:39.198Z,2.10
2023-05-25T09:46:08.930Z,2.17
2023-05-25T09:48:38.379Z,2.17
2023-05-25T09:51:14.782Z,2.75
2023-05-25T09:53:46.435Z,2.80
2023-05-25T09:56:17.352Z,2.65
2023-05-25T09:58:54.210Z,2.83
2023-05-25T10:01:25.218Z,3.20
2023-05-25T10:04:03.543Z,3.72
2023-05-25T10:06:33.899Z,3.33
2023-05-25T10:09:05.349Z,3.40
2023-05-25T10:11:37.388Z,3.33
2023-05-25T10:14:11.333Z,3.08
2023-05-25T10:16:41.454Z,3.65
2023-05-25T10:19:42.739Z,2.90
2023-05-25T10:22:40.076Z,2.92
2023-05-25T10:25:54.804Z,2.97
2023-05-25T10:28:39.928Z,3.45
2023-05-25T10:31:13.674Z,2.70
2023-05-25T10:33:41.460Z,3.60
2023-05-25T10:36:18.161Z,3.25
2023-05-25T10:38:46.221Z,2.55
2023-05-25T10:41:25.090Z,4.15
2023-05-25T10:43:53.518Z,2.90
2023-05-25T10:46:24.300Z,2.50
2023-05-25T10:49:11.517Z,2.55
2023-05-25T10:51:40.988Z,2.40
2023-05-25T10:54:08.408Z,2.60
2023-05-25T10:56:38.924Z,2.53
2023-05-25T10:59:13.084Z,2.97
2023-05-25T11:01:53.423Z,2.35
2023-05-25T11:04:20.597Z,2.58
2023-05-25T11:06:48.007Z,2.38
2023-05-25T11:09:40.970Z,2.70
2023-05-25T11:12:08.680Z,2.65
2023-05-25T11:14:42.749Z,2.00
2023-05-25T11:17:21.617Z,2.40
2023-05-25T11:20:02.326Z,2.38
2023-05-25T11:22:36.378Z,2.63
2023-05-25T11:25:42.990Z,2.10
2023-05-25T11:28:13.837Z,2.00
2023-05-25T11:30:44.498Z,2.20
2023-05-25T11:33:11.966Z,2.30
2023-05-25T11:35:45.779Z,2.22
2023-05-25T11:38:13.365Z,2.67
2023-05-25T11:40:40.860Z,2.30
2023-05-25T11:43:09.753Z,2.70
2023-05-25T11:45:52.466Z,2.70
2023-05-25T11:48:35.919Z,2.28
2023-05-25T11:51:07.304Z,2.55
2023-05-25T11:53:49.467Z,2.08
2023-05-25T11:56:35.905Z,3.03
2023-05-25T11:59:12.676Z,2.47
2023-05-25T12:01:40.354Z,2.10
2023-05-25T12:07:28.235Z,2.50
2023-05-25T12:10:26.123Z,2.55
2023-05-25T12:12:58.215Z,2.63
2023-05-25T12:15:40.740Z,4.43
2023-05-25T12:18:11.293Z,3.25
2023-05-25T12:20:44.757Z,3.40
2023-05-25T12:23:18.712Z,3.42
2023-05-25T12:25:50.675Z,3.75
2023-05-25T12:28:23.904Z,5.30
2023-05-25T12:30:52.336Z,4.22
2023-05-25T12:33:28.311Z,3.92
2023-05-25T12:35:58.135Z,3.47
2023-05-25T12:38:25.580Z,3.55
2023-05-25T12:41:12.759Z,4.13
2023-05-25T12:43:45.127Z,3.42
2023-05-25T12:46:24.792Z,3.38
2023-05-25T12:48:56.254Z,3.50
2023-05-25T12:51:40.667Z,3.30
2023-05-25T12:54:42.410Z,3.72
2023-05-25T12:57:53.071Z,3.30
2023-05-25T13:00:27.321Z,3.50
2023-05-25T13:02:55.795Z,2.90
2023-05-25T13:05:37.159Z,2.80
2023-05-25T13:08:06.796Z,2.80
2023-05-25T13:10:38.986Z,2.88
2023-05-25T13:13:11.233Z,3.35
2023-05-25T13:15:38.835Z,3.13
2023-05-25T13:18:09.293Z,4.00
2023-05-25T13:20:36.982Z,2.80
2023-05-25T13:23:07.359Z,3.25
2023-05-25T13:25:35.288Z,3.67
2023-05-25T13:28:08.458Z,3.38
2023-05-25T13:30:35.946Z,3.58
2023-05-25T13:33:06.087Z,4.05
2023-05-25T13:35:57.691Z,3.58
2023-05-25T13:38:29.644Z,4.03
2023-05-25T13:41:01.502Z,4.68
2023-05-25T13:43:29.961Z,3.47
2023-05-25T13:46:00.363Z,3.78
2023-05-25T13:48:30.282Z,3.28
2023-05-25T13:50:57.791Z,3.72
2023-05-25T13:53:27.478Z,3.85
2023-05-25T13:55:54.996Z,3.63
2023-05-25T13:58:25.376Z,3.83
2023-05-25T14:00:52.899Z,4.20
2023-05-25T14:03:20.435Z,3.83
2023-05-25T14:05:47.784Z,4.97
2023-05-25T14:08:20.620Z,4.10
2023-05-25T14:10:48.094Z,4.97
2023-05-25T14:13:15.521Z,4.30
2023-05-25T14:15:44.382Z,4.38
2023-05-25T14:18:12.004Z,4.15
2023-05-25T14:20:41.436Z,4.30
2023-05-25T14:23:10.672Z,4.20
2023-05-25T14:25:40.104Z,4.28
2023-05-25T14:28:07.723Z,3.83
2023-05-25T14:30:35.127Z,4.57
2023-05-25T14:33:03.889Z,3.47
2023-05-25T14:35:31.212Z,4.22
2023-05-25T14:37:58.423Z,5.38
2023-05-25T14:40:25.812Z,4.38
2023-05-25T14:42:55.939Z,4.43
2023-05-25T14:45:23.326Z,4.97
2023-05-25T14:48:03.970Z,4.63
2023-05-25T14:50:35.443Z,4.15
2023-05-25T14:53:04.923Z,4.13
2023-05-25T14:55:32.393Z,3.83
2023-05-25T14:57:59.742Z,3.90
2023-05-25T15:00:27.104Z,4.03
2023-05-25T15:02:54.740Z,3.90
2023-05-25T15:05:22.513Z,3.95
2023-05-25T15:07:49.849Z,4.18
2023-05-25T15:10:17.183Z,3.53
2023-05-25T15:12:44.360Z,3.30
2023-05-25T15:15:12.336Z,3.63
2023-05-25T15:17:39.724Z,3.63
2023-05-25T15:20:07.767Z,3.40
2023-05-25T15:22:35.646Z,3.33
2023-05-25T15:25:06.260Z,3.55
2023-05-25T15:27:34.857Z,3.53
2023-05-25T15:30:02.156Z,3.58
2023-05-25T15:32:29.295Z,3.58
2023-05-25T15:34:56.440Z,3.95
2023-05-25T15:37:23.658Z,4.00
2023-05-25T15:39:56.097Z,4.55
2023-05-25T15:42:23.265Z,5.35
2023-05-25T15:44:50.529Z,5.40
2023-05-25T15:47:17.814Z,4.55
2023-05-25T15:49:44.985Z,4.70
2023-05-25T15:52:17.901Z,4.40
2023-05-25T15:54:44.997Z,3.60
2023-05-25T15:57:12.197Z,3.67
2023-05-25T15:59:48.033Z,3.40
2023-05-25T16:02:18.175Z,3.88
2023-05-25T16:04:53.753Z,3.45
2023-05-25T16:07:20.988Z,3.30
2023-05-25T16:09:48.178Z,2.70
2023-05-25T16:12:15.772Z,2.60
2023-05-25T16:14:44.119Z,3.50
2023-05-25T16:17:12.393Z,3.03
2023-05-25T16:19:42.817Z,2.72
2023-05-25T16:22:10.072Z,3.30
2023-05-25T16:24:37.735Z,3.53
2023-05-25T16:27:11.436Z,3.38
2023-05-25T16:29:39.004Z,3.00
2023-05-25T16:32:06.773Z,2.90
2023-05-25T16:34:33.992Z,2.75
2023-05-25T16:37:01.187Z,3.35
2023-05-25T16:39:28.576Z,2.55
2023-05-25T16:41:56.943Z,2.95
2023-05-25T16:44:27.021Z,3.00
2023-05-25T16:46:54.224Z,3.38
2023-05-25T16:49:22.127Z,3.08
2023-05-25T16:51:51.860Z,3.42
2023-05-25T16:54:19.120Z,3.38
2023-05-25T16:56:47.007Z,3.13
2023-05-25T16:59:16.955Z,2.67
2023-05-25T17:01:44.347Z,2.90
2023-05-25T17:04:12.110Z,2.72
2023-05-25T17:06:39.498Z,2.50
2023-05-25T17:09:09.659Z,3.40
2023-05-25T17:11:36.796Z,2.90
2023-05-25T17:14:09.429Z,2.75
2023-05-25T17:16:36.738Z,2.90
2023-05-25T17:19:04.257Z,3.22
2023-05-25T17:21:32.091Z,3.10
2023-05-25T17:23:59.381Z,2.92
2023-05-25T17:26:27.014Z,3.05
2023-05-25T17:28:56.617Z,3.65
2023-05-25T17:31:24.095Z,3.25
2023-05-25T17:33:51.636Z,3.47
2023-05-25T17:36:19.315Z,3.28
2023-05-25T17:38:46.590Z,3.00
2023-05-25T17:41:14.306Z,3.22
2023-05-25T17:43:41.643Z,3.10
2023-05-25T17:46:09.282Z,3.00
2023-05-25T17:48:37.298Z,3.33
2023-05-25T17:51:07.822Z,3.10
2023-05-25T17:53:35.082Z,3.10
2023-05-25T17:56:02.348Z,3.05
2023-05-25T17:58:32.666Z,3.15
2023-05-25T18:00:59.991Z,2.53
2023-05-25T18:03:27.792Z,2.97
2023-05-25T18:05:55.278Z,2.60
2023-05-25T18:08:25.370Z,3.07
2023-05-25T18:10:52.905Z,2.90
2023-05-25T18:13:20.163Z,3.10
2023-05-25T18:15:47.480Z,2.90
2023-05-25T18:18:16.577Z,3.57
2023-05-25T18:20:43.901Z,3.40
2023-05-25T18:23:13.188Z,2.60
2023-05-25T18:25:40.467Z,3.22
2023-05-25T18:28:07.601Z,3.13
2023-05-25T18:30:34.801Z,3.10
2023-05-25T18:33:01.931Z,3.27
2023-05-25T18:35:29.093Z,3.78
2023-05-25T18:37:56.251Z,3.10
2023-05-25T18:40:23.370Z,3.15
2023-05-25T18:42:53.280Z,2.75
2023-05-25T18:45:20.708Z,2.97
2023-05-25T18:47:48.186Z,3.23
2023-05-25T18:50:15.786Z,3.40
2023-05-25T18:52:43.227Z,3.30
2023-05-25T18:55:10.677Z,2.57
2023-05-25T18:57:37.900Z,2.97
2023-05-25T19:00:08.721Z,2.87
2023-05-25T19:02:36.695Z,3.27
2023-05-25T19:05:04.159Z,3.17
2023-05-25T19:07:31.439Z,3.10
2023-05-25T19:09:58.772Z,2.30
2023-05-25T19:12:26.219Z,2.50
2023-05-25T19:14:55.226Z,2.57
2023-05-25T19:17:22.533Z,3.13
2023-05-25T19:19:52.878Z,2.83
2023-05-25T19:22:20.263Z,2.77
2023-05-25T19:24:50.683Z,2.93
2023-05-25T19:27:27.618Z,3.00
2023-05-25T19:29:54.934Z,2.77
2023-05-25T19:32:32.599Z,3.50
2023-05-25T19:34:59.786Z,3.40
2023-05-25T19:37:28.111Z,3.13
2023-05-25T19:39:55.609Z,3.87
2023-05-25T19:42:22.941Z,3.80
2023-05-25T19:44:53.201Z,3.70
2023-05-25T19:47:20.722Z,3.33
2023-05-25T19:49:48.185Z,2.80
2023-05-25T19:52:18.212Z,15.03
2023-05-25T19:54:46.111Z,2.93
2023-05-25T19:57:13.751Z,2.60
2023-05-25T19:59:41.150Z,3.27
2023-05-25T20:02:08.744Z,2.53
2023-05-25T20:04:39.807Z,2.43
2023-05-25T20:07:18.263Z,3.30
2023-05-25T20:09:46.189Z,3.03
2023-05-25T20:12:14.910Z,2.73
2023-05-25T20:14:43.593Z,2.67
2023-05-25T20:17:10.999Z,2.90
2023-05-25T20:19:39.240Z,3.00
2023-05-25T20:22:11.402Z,3.50
2023-05-25T20:24:38.967Z,3.57
2023-05-25T20:27:06.568Z,3.13
2023-05-25T20:29:33.989Z,2.90
2023-05-25T20:32:10.211Z,2.47
2023-05-25T20:34:37.493Z,3.23
2023-05-25T20:37:04.891Z,3.40
2023-05-25T20:39:32.101Z,2.97
2023-05-25T20:41:59.378Z,2.53
2023-05-25T20:44:27.228Z,2.63
2023-05-25T20:46:54.648Z,2.93
2023-05-25T20:49:23.781Z,2.73
2023-05-25T20:51:52.394Z,2.60
2023-05-25T20:54:19.709Z,2.70
2023-05-25T20:56:47.978Z,2.90
2023-05-25T20:59:15.325Z,3.00
2023-05-25T21:01:44.188Z,2.93
2023-05-25T21:04:11.565Z,2.93
2023-05-25T21:06:38.915Z,2.77
2023-05-25T21:09:06.479Z,2.93
2023-05-25T21:11:36.588Z,2.50
2023-05-25T21:14:03.773Z,2.23
2023-05-25T21:16:33.411Z,2.73
2023-05-25T21:19:04.651Z,3.00
2023-05-25T21:21:34.021Z,2.80
2023-05-25T21:24:02.855Z,3.00
2023-05-25T21:26:32.957Z,3.00
2023-05-25T21:29:00.319Z,2.80
2023-05-25T21:31:27.846Z,3.23
2023-05-25T21:33:59.994Z,2.33
2023-05-25T21:36:28.230Z,3.00
2023-05-25T21:39:01.689Z,2.77
2023-05-25T21:41:32.000Z,2.90
2023-05-25T21:44:03.184Z,3.17
2023-05-25T21:46:53.887Z,3.00
2023-05-25T21:49:24.278Z,2.90
2023-05-25T21:51:51.652Z,3.37
2023-05-25T21:54:19.584Z,3.23
2023-05-25T21:57:01.931Z,4.03
2023-05-25T21:59:29.346Z,3.30
2023-05-25T22:01:56.840Z,2.57
2023-05-25T22:04:29.798Z,2.93
2023-05-25T22:07:01.595Z,3.90
2023-05-25T22:09:44.377Z,3.50
2023-05-25T22:12:22.890Z,2.83
2023-05-25T22:14:56.215Z,3.20
2023-05-25T22:17:23.499Z,2.90
2023-05-25T22:20:06.447Z,3.00
2023-05-25T22:22:48.519Z,3.40
2023-05-25T22:25:22.391Z,3.13
2023-05-25T22:27:56.085Z,3.00
2023-05-25T22:30:23.964Z,2.80
2023-05-25T22:32:56.885Z,2.80
2023-05-25T22:35:24.838Z,3.00
2023-05-25T22:38:01.389Z,3.07
2023-05-25T22:40:29.296Z,2.83
2023-05-25T22:42:56.791Z,3.10
2023-05-25T22:45:38.401Z,3.27
2023-05-25T22:48:12.449Z,3.63
2023-05-25T22:50:40.264Z,3.27
2023-05-25T22:53:10.135Z,3.17
2023-05-25T22:55:46.517Z,2.77
2023-05-25T22:58:18.383Z,3.80
2023-05-25T23:00:45.655Z,3.40
2023-05-25T23:03:25.251Z,3.30
2023-05-25T23:06:02.769Z,3.10
2023-05-25T23:08:29.988Z,3.47
2023-05-25T23:11:03.180Z,3.07
2023-05-25T23:13:31.017Z,3.60
2023-05-25T23:15:58.287Z,3.00
2023-05-25T23:18:25.561Z,3.63
2023-05-25T23:20:53.026Z,3.40
2023-05-25T23:23:20.768Z,3.53
2023-05-25T23:25:48.559Z,3.47
2023-05-25T23:28:17.437Z,3.87
2023-05-25T23:30:44.929Z,3.90
2023-05-25T23:33:18.435Z,3.57
2023-05-25T23:35:53.461Z,3.50
2023-05-25T23:38:26.273Z,3.10
2023-05-25T23:41:00.063Z,3.90
2023-05-25T23:43:27.530Z,3.17
2023-05-25T23:46:00.679Z,3.67
2023-05-25T23:48:34.795Z,3.93
2023-05-25T23:51:03.373Z,3.33
2023-05-25T23:53:31.156Z,3.80
2023-05-25T23:55:58.504Z,3.67
2023-05-25T23:58:28.745Z,3.53
